Elmont, NY

3:05 PM EDT on August 27, 2014 (GMT -0400)
Just West of Town Hall | Change Station
CLOSE
Current Station
Personal Weather Station
Location: Floral Park, NY
Elevation: 78 ft
Nearby Weather Stations
Active Advisory: High Surf Advisory

Elev 78 ft 40.72 °N, 73.71 °W | Updated 7 seconds ago

Partly Cloudy
Partly Cloudy
90.0 °F
Feels Like 90 °F
N
4.9
Wind Variable Wind from North
Gusts 4.9 mph

Today
High -- | Low -- °F
--% Chance of Precip.
Yesterday
High -- | Low -- °F
Precip. -- in
6:16 AM 7:34 PM
Waxing Crescent, 4% visible
Pressure 29.94 in
Visibility 10.0 miles
Clouds Few 6000 ft
Heat Index 90 °F
Dew Point 60 °F
Humidity 37%
Rainfall 0.00 in
Snow Depth Not available.
UV 7 out of 12
Pollen 10.30 out of 12
Air Quality Not available.
Flu Activity Not available.
METAR KJFK 271851Z 18009KT 10SM FEW060 29/18 A2994 RMK AO2 SLP138 T02890183

More Conditions Fewer Conditions

Pressure 29.94 in
Visibility 10.0 miles
Clouds Few 6000 ft
Heat Index 90 °F
Dew Point 60 °F
Humidity 37%
Rainfall 0.00 in
Snow Depth Not available.
UV 7 out of 12
Pollen 10.30 out of 12
Air Quality Not available.
Flu Activity Not available.
METAR KJFK 271851Z 18009KT 10SM FEW060 29/18 A2994 RMK AO2 SLP138 T02890183

More Conditions Fewer Conditions

10-Day Weather Forecast

Almanac

Astronomy

Aug. 27, 2014 Rise Set
Actual Time 6:16 AM EDT 7:34 PM EDT
Civil Twilight 5:48 AM EDT 8:03 PM EDT
Nautical Twilight 5:14 AM EDT 8:37 PM EDT
Astronomical Twilight 4:38 AM EDT 9:13 PM EDT
Moon 8:11 AM EDT 8:24 PM EDT
Length of Visible Light 14h 14m
Length of Day
13h 18m
Tomorrow will be 2m 32s shorter.
Waxing Crescent, 4% of the Moon is Illuminated
Today
Waxing Crescent
Sep 2
First Quarter
Sep 8
Full
Sep 15
Last Quarter
Sep 24
New

Today's Extremes

State Highs State Lows

Community

WunderPhotos

Upload Photos

1,747,753 photos uploaded!

Nearby

Snow Depth

Station Depth Elevation
No new snow has been reported.

Earthquake Activity

City Distance Mag. Time & Date
No recent earthquake activity has been reported nearby.
Minimum magnitude displayed is 2.5.

Coastal Water Temperatures

Place Temperature
Sandy Hook, NJ 78.1 °F
The Battery, NY 75.0 °F
Bergen Point West Reach, NJ 75.0 °F
Kings Point, NY 73.9 °F

Nearby Weather Stations